Prineville, Oregon
Current Conditions -  °F | °C
As of 8:35 AM on Wednesday 22 Oct 2014 (Local Time) from KS39 Reporting Station
Broken Clouds Broken Clouds  
Wind Chill: 52°   Ceiling: 9000
Heat Index: 52°   Visibility: 10mi
Dew Point: 37°   Wind: 14mph
Humidity: 58%   Direction: 160°SSE
Pressure: 29.94"   Gusts: NA
Location:  44.3°N, 120.84°W
Report Text: KS39 221535Z 16012KT 10SM FEW060 SCT075 BKN090 11/03 A2994 RMK AO2 CRANE OPERATIONS 1 MILE NE OF AIRPORT OPERATING AT APP. 150 FT AGL.
Loading
Personal Weather Stations






























Interactive Weather Map New forecast layout! Learn more

10-Day Weather Forecast

Advertisements
Track Severe Weather on mobile